Time;durP1;ratioP1;P1;durP2;ratioP2;P2;SDS_P1;SDS_P2;PMS_P1;PMS_P2;Temp;Humidity;BMP_temperature;BMP_pressure;BME280_temperature;BME280_humidity;BME280_pressure;Samples;Min_cycle;Max_cycle;Signal;HPM_P1;HPM_P2
2023/08/05 00:00:32;;;;;;;;;;;;;;;21.80;58.88;100969.03;5062164;28;3945;-64
2023/08/05 00:02:58;;;;;;;;;;;;;;;21.80;58.91;100963.25;5062893;28;4276;-64
2023/08/05 00:05:24;;;;;;;;;;;;;;;21.81;58.84;100970.53;5061496;28;4067;-64
2023/08/05 00:07:51;;;;;;;;;;;;;;;21.80;58.87;100979.81;5061846;28;4106;-64
2023/08/05 00:10:17;;;;;;;;;;;;;;;21.81;58.74;100987.09;5061340;28;4055;-64
2023/08/05 00:12:44;;;;;;;;;;;;;;;21.80;58.73;100988.47;5061748;28;4168;-64
2023/08/05 00:15:10;;;;;;;;;;;;;;;21.81;58.83;100987.81;5061360;28;4106;-63
2023/08/05 00:17:36;;;;;;;;;;;;;;;21.80;58.83;100994.97;5061745;28;4158;-64
2023/08/05 00:20:03;;;;;;;;;;;;;;;21.80;58.75;100989.22;5061936;28;5009;-64
2023/08/05 00:22:30;;;;;;;;;;;;;;;21.80;58.79;100994.97;5060692;28;4140;-63
2023/08/05 00:24:56;;;;;;;;;;;;;;;21.80;58.65;100991.34;5061428;28;4198;-66
2023/08/05 00:27:22;;;;;;;;;;;;;;;21.80;58.90;100994.25;5061829;28;4168;-70
2023/08/05 00:29:49;;;;;;;;;;;;;;;21.81;58.54;100995.75;5060812;28;4488;-67
2023/08/05 00:32:15;;;;;;;;;;;;;;;21.81;58.80;100987.09;5060414;28;4148;-67
2023/08/05 00:34:42;;;;;;;;;;;;;;;21.81;58.77;100992.84;5039796;28;4309;-67
2023/08/05 00:37:08;;;;;;;;;;;;;;;21.80;58.95;100994.25;5041333;28;4101;-67
2023/08/05 00:39:34;;;;;;;;;;;;;;;21.79;58.68;100990.63;5040589;28;3995;-67
2023/08/05 00:42:01;;;;;;;;;;;;;;;21.80;58.71;100997.13;5040028;28;4013;-67
2023/08/05 00:44:27;;;;;;;;;;;;;;;21.80;58.77;100997.13;5055844;28;3960;-67
2023/08/05 00:46:54;;;;;;;;;;;;;;;21.81;58.61;100995.75;5040757;28;4189;-67
2023/08/05 00:49:20;;;;;;;;;;;;;;;21.80;58.88;100997.13;5040260;28;4118;-67
2023/08/05 00:51:47;;;;;;;;;;;;;;;21.80;58.62;100994.97;5040543;28;4149;-67
2023/08/05 00:54:13;;;;;;;;;;;;;;;21.80;58.77;100992.09;5055531;28;4155;-67
2023/08/05 00:56:40;;;;;;;;;;;;;;;21.78;58.84;100989.13;5040173;28;4123;-67
2023/08/05 00:59:07;;;;;;;;;;;;;;;21.79;58.81;100989.88;5041082;28;4154;-67
2023/08/05 01:01:33;;;;;;;;;;;;;;;21.80;58.43;100979.81;5040071;28;4103;-67
2023/08/05 01:04:01;;;;;;;;;;;;;;;21.79;58.52;100981.25;5040591;28;4407;-66
2023/08/05 01:06:28;;;;;;;;;;;;;;;21.79;58.51;100984.13;5040193;28;4119;-67
2023/08/05 01:08:54;;;;;;;;;;;;;;;21.78;58.53;100983.34;5039880;28;4028;-67
2023/08/05 01:11:21;;;;;;;;;;;;;;;21.79;58.88;100978.34;5055855;28;3932;-67
2023/08/05 01:13:47;;;;;;;;;;;;;;;21.78;58.55;100971.81;5039170;28;4469;-67
2023/08/05 01:16:14;;;;;;;;;;;;;;;21.79;58.92;100975.47;5039579;28;4136;-67
2023/08/05 01:18:40;;;;;;;;;;;;;;;21.77;58.57;100970.34;5039923;28;4217;-66
2023/08/05 01:21:10;;;;;;;;;;;;;;;21.79;58.54;100972.59;5039775;28;4500;-67
2023/08/05 01:23:47;;;;;;;;;;;;;;;21.78;58.46;100968.22;5040037;28;4127;-66
2023/08/05 01:26:14;;;;;;;;;;;;;;;21.76;58.52;100963.09;5043572;28;5074;-67
2023/08/05 01:28:40;;;;;;;;;;;;;;;21.75;58.66;100973.88;5023746;28;4164;-67
2023/08/05 01:31:07;;;;;;;;;;;;;;;21.78;58.46;100976.84;5051357;28;4458;-67
2023/08/05 01:33:33;;;;;;;;;;;;;;;21.78;58.71;100971.09;5028643;28;3986;-67
2023/08/05 01:35:59;;;;;;;;;;;;;;;21.77;58.71;100976.13;5058733;28;4077;-67
2023/08/05 01:38:26;;;;;;;;;;;;;;;21.75;58.64;100962.34;5059151;28;3911;-66
2023/08/05 01:40:52;;;;;;;;;;;;;;;21.77;58.70;100975.38;5058974;28;4161;-68
2023/08/05 01:43:19;;;;;;;;;;;;;;;21.76;58.61;100963.09;5042980;28;3903;-67
2023/08/05 01:45:45;;;;;;;;;;;;;;;21.75;58.51;100973.88;5058402;28;4398;-67
2023/08/05 01:48:11;;;;;;;;;;;;;;;21.75;58.36;100962.34;5042654;28;4183;-67
2023/08/05 01:50:38;;;;;;;;;;;;;;;21.77;58.60;100972.50;5058484;28;4345;-66
2023/08/05 01:53:04;;;;;;;;;;;;;;;21.74;58.57;100972.41;5057855;28;3953;-67
2023/08/05 01:55:31;;;;;;;;;;;;;;;21.76;58.77;100974.63;5050194;28;4215;-67
2023/08/05 01:57:57;;;;;;;;;;;;;;;21.74;58.47;100975.28;5058836;28;4825;-67
2023/08/05 02:00:24;;;;;;;;;;;;;;;21.73;58.72;100970.91;5049440;28;4295;-67
2023/08/05 02:02:50;;;;;;;;;;;;;;;21.74;58.49;100971.69;5059603;28;4121;-67
2023/08/05 02:05:17;;;;;;;;;;;;;;;21.75;58.50;100981.78;5060408;28;4439;-66
2023/08/05 02:07:43;;;;;;;;;;;;;;;21.73;58.66;100965.16;5056371;28;4029;-67
2023/08/05 02:10:09;;;;;;;;;;;;;;;21.74;58.67;100972.41;5060492;28;4272;-66
2023/08/05 02:12:36;;;;;;;;;;;;;;;21.73;58.57;100970.91;5041178;28;4104;-66
2023/08/05 02:15:03;;;;;;;;;;;;;;;21.75;58.55;100973.88;5059115;28;4034;-67
2023/08/05 02:17:29;;;;;;;;;;;;;;;21.73;58.72;100970.91;5058663;28;4402;-67
2023/08/05 02:19:55;;;;;;;;;;;;;;;21.74;58.67;100975.28;5060168;28;3929;-67
2023/08/05 02:22:22;;;;;;;;;;;;;;;21.73;58.75;100975.94;5059892;28;4185;-67
2023/08/05 02:24:48;;;;;;;;;;;;;;;21.73;58.69;100973.06;5058175;28;4274;-67
2023/08/05 02:27:15;;;;;;;;;;;;;;;21.72;58.54;100975.19;5058270;28;4065;-67
2023/08/05 02:29:41;;;;;;;;;;;;;;;21.72;58.58;100977.34;5058617;28;4314;-67
2023/08/05 02:32:08;;;;;;;;;;;;;;;21.72;58.56;100980.22;5058690;28;4023;-67
2023/08/05 02:34:35;;;;;;;;;;;;;;;21.72;58.59;100980.97;5041466;28;4233;-67
2023/08/05 02:37:02;;;;;;;;;;;;;;;21.71;58.57;100991.00;5031756;28;4631;-67
2023/08/05 02:39:28;;;;;;;;;;;;;;;21.71;58.72;100996.75;5058445;28;4075;-67
2023/08/05 02:41:54;;;;;;;;;;;;;;;21.71;58.50;100991.00;5041012;28;3937;-67
2023/08/05 02:44:21;;;;;;;;;;;;;;;21.72;58.57;100998.25;5059422;28;4177;-68
2023/08/05 02:46:47;;;;;;;;;;;;;;;21.71;58.60;100993.88;5041377;28;4118;-67
2023/08/05 02:49:14;;;;;;;;;;;;;;;21.71;58.72;100996.03;5060528;28;4596;-67
2023/08/05 02:51:41;;;;;;;;;;;;;;;21.71;58.63;100990.25;5058742;28;4140;-67
2023/08/05 02:54:07;;;;;;;;;;;;;;;21.70;58.76;101001.06;5059148;28;4112;-67
2023/08/05 02:56:34;;;;;;;;;;;;;;;21.71;58.43;100998.91;5058772;28;4160;-67
2023/08/05 02:59:00;;;;;;;;;;;;;;;21.70;58.53;100997.44;5057709;28;3925;-67
2023/08/05 03:01:27;;;;;;;;;;;;;;;21.70;58.77;100995.28;5059890;28;4511;-67
2023/08/05 03:03:53;;;;;;;;;;;;;;;21.69;58.65;100993.81;5031623;28;4248;-66
2023/08/05 03:06:20;;;;;;;;;;;;;;;21.70;58.66;101006.06;5041928;28;4094;-67
2023/08/05 03:08:46;;;;;;;;;;;;;;;21.68;58.70;101003.84;5056689;28;4405;-67
2023/08/05 03:11:12;;;;;;;;;;;;;;;21.69;58.77;100998.81;5058046;28;4047;-67
2023/08/05 03:13:40;;;;;;;;;;;;;;;21.69;58.51;100996.69;5050003;28;4254;-66
2023/08/05 03:16:10;;;;;;;;;;;;;;;21.67;58.80;100987.97;5063001;28;3982;-67
2023/08/05 03:18:41;;;;;;;;;;;;;;;21.69;58.47;100999.56;5043576;28;4105;-67
2023/08/05 03:21:08;;;;;;;;;;;;;;;21.67;58.80;100999.50;5017630;28;4533;-67
2023/08/05 03:23:36;;;;;;;;;;;;;;;21.67;58.48;100987.97;5044068;28;3989;-66
2023/08/05 03:26:03;;;;;;;;;;;;;;;21.67;58.49;100984.31;5044226;28;4025;-67
2023/08/05 03:28:29;;;;;;;;;;;;;;;21.67;58.33;100979.31;5060386;28;4041;-67
2023/08/05 03:30:56;;;;;;;;;;;;;;;21.68;58.73;100986.56;5043887;28;4445;-67
2023/08/05 03:33:26;;;;;;;;;;;;;;;21.67;58.73;100973.56;5055580;28;4114;-67
2023/08/05 03:35:54;;;;;;;;;;;;;;;21.66;58.60;100969.16;5041157;28;4686;-67
2023/08/05 03:38:23;;;;;;;;;;;;;;;21.67;58.63;100978.56;5041614;28;4007;-67
2023/08/05 03:40:49;;;;;;;;;;;;;;;21.67;58.65;100972.78;5056101;28;4191;-67
2023/08/05 03:43:16;;;;;;;;;;;;;;;21.66;58.40;100972.06;5042124;28;4136;-67
2023/08/05 03:45:48;;;;;;;;;;;;;;;21.66;58.54;100972.06;5039707;28;4467;-67
2023/08/05 03:48:15;;;;;;;;;;;;;;;21.66;58.44;100977.09;5042175;28;3917;-67
2023/08/05 03:50:41;;;;;;;;;;;;;;;21.66;58.45;100966.28;5041630;28;4199;-66
2023/08/05 03:53:08;;;;;;;;;;;;;;;21.65;58.80;100973.47;5042863;28;3960;-67
2023/08/05 03:55:34;;;;;;;;;;;;;;;21.65;58.65;100964.81;5042502;28;4154;-67
2023/08/05 03:58:01;;;;;;;;;;;;;;;21.65;58.66;100970.59;5041432;28;4428;-67
2023/08/05 04:00:28;;;;;;;;;;;;;;;21.65;58.46;100976.34;5041564;28;4068;-67
2023/08/05 04:02:55;;;;;;;;;;;;;;;21.66;58.49;100977.09;5041730;28;4281;-67
2023/08/05 04:05:21;;;;;;;;;;;;;;;21.65;58.73;100981.38;5042075;28;5427;-68
2023/08/05 04:07:48;;;;;;;;;;;;;;;21.64;58.79;100980.59;5042271;28;4487;-67
2023/08/05 04:10:14;;;;;;;;;;;;;;;21.65;58.41;100993.63;5041995;28;4180;-67
2023/08/05 04:12:41;;;;;;;;;;;;;;;21.65;58.38;100987.13;5041357;28;4138;-67
2023/08/05 04:15:11;;;;;;;;;;;;;;;21.65;58.73;100996.50;5045508;28;4019;-67
2023/08/05 04:17:38;;;;;;;;;;;;;;;21.64;58.54;100989.25;5039766;28;4292;-67
2023/08/05 04:20:05;;;;;;;;;;;;;;;21.63;58.66;100987.78;5041405;28;4363;-67
2023/08/05 04:22:31;;;;;;;;;;;;;;;21.64;58.43;100991.41;5046248;28;4964;-67
2023/08/05 04:24:57;;;;;;;;;;;;;;;21.65;58.71;100992.91;5040423;28;4139;-67
2023/08/05 04:27:24;;;;;;;;;;;;;;;21.64;58.64;100991.41;5042808;28;3949;-67
2023/08/05 04:29:51;;;;;;;;;;;;;;;21.64;58.73;101002.94;5040919;28;4480;-67
2023/08/05 04:32:17;;;;;;;;;;;;;;;21.65;58.64;100999.41;5041175;28;4162;-67
2023/08/05 04:34:44;;;;;;;;;;;;;;;21.64;58.53;100997.16;5047666;28;4340;-67
2023/08/05 04:37:20;;;;;;;;;;;;;;;21.63;58.47;101001.44;5060685;28;4111;-67
2023/08/05 04:39:46;;;;;;;;;;;;;;;21.63;58.63;101002.19;5060214;28;4086;-67
2023/08/05 04:42:12;;;;;;;;;;;;;;;21.63;58.44;101007.94;5060798;28;4416;-67
2023/08/05 04:44:42;;;;;;;;;;;;;;;21.64;58.69;101002.94;5060221;28;4620;-66
2023/08/05 04:47:08;;;;;;;;;;;;;;;21.62;58.48;100999.94;5060644;28;4243;-67
2023/08/05 04:49:35;;;;;;;;;;;;;;;21.62;58.58;100994.94;5059912;28;3996;-67
2023/08/05 04:52:05;;;;;;;;;;;;;;;21.63;58.71;100996.44;5060325;28;5318;-67
2023/08/05 04:54:37;;;;;;;;;;;;;;;21.63;58.50;101001.44;5061126;28;4437;-67
2023/08/05 04:57:04;;;;;;;;;;;;;;;21.63;58.76;101001.44;5060073;28;4103;-67
2023/08/05 04:59:30;;;;;;;;;;;;;;;21.61;58.67;100993.44;5061089;28;3898;-67
2023/08/05 05:01:56;;;;;;;;;;;;;;;21.62;58.68;101000.69;5060430;28;3921;-67
2023/08/05 05:04:23;;;;;;;;;;;;;;;21.61;58.65;101002.09;5060500;28;4128;-67
2023/08/05 05:06:49;;;;;;;;;;;;;;;21.62;58.66;101003.56;5060341;28;4346;-67
2023/08/05 05:09:16;;;;;;;;;;;;;;;21.62;58.54;101005.72;5059935;28;4152;-67
2023/08/05 05:11:42;;;;;;;;;;;;;;;21.61;58.40;101004.97;5060532;28;4151;-67
2023/08/05 05:14:09;;;;;;;;;;;;;;;21.63;58.41;101002.19;5059809;28;4116;-67
2023/08/05 05:16:35;;;;;;;;;;;;;;;21.62;58.46;101011.47;5059633;28;3984;-67
2023/08/05 05:19:02;;;;;;;;;;;;;;;21.61;58.43;101018.66;5060230;28;4346;-67
2023/08/05 05:21:29;;;;;;;;;;;;;;;21.61;58.45;101019.38;5060234;28;4045;-67
2023/08/05 05:23:55;;;;;;;;;;;;;;;21.62;58.77;101029.50;5059490;28;4215;-67
2023/08/05 05:26:22;;;;;;;;;;;;;;;21.61;58.67;101033.78;5059408;28;4153;-67
2023/08/05 05:28:48;;;;;;;;;;;;;;;21.61;58.68;101051.09;5059886;28;4159;-67
2023/08/05 05:31:15;;;;;;;;;;;;;;;21.61;58.55;101045.31;5060389;28;3976;-67
2023/08/05 05:33:45;;;;;;;;;;;;;;;21.62;58.64;101049.69;5045673;28;4142;-67
2023/08/05 05:36:11;;;;;;;;;;;;;;;21.61;58.35;101045.31;5059661;28;4157;-67
2023/08/05 05:38:38;;;;;;;;;;;;;;;21.61;58.68;101051.09;5058362;28;4201;-67
2023/08/05 05:41:04;;;;;;;;;;;;;;;21.61;58.51;101044.59;5059967;28;3983;-67
2023/08/05 05:43:30;;;;;;;;;;;;;;;21.61;58.73;101035.94;5060140;28;4336;-67
2023/08/05 05:45:57;;;;;;;;;;;;;;;21.61;58.70;101039.56;5059734;28;4094;-67
2023/08/05 05:48:23;;;;;;;;;;;;;;;21.59;58.38;101042.34;5059395;28;4075;-67
2023/08/05 05:50:52;;;;;;;;;;;;;;;21.61;58.63;101035.94;5059609;28;4183;-67
2023/08/05 05:53:19;;;;;;;;;;;;;;;21.59;58.67;101033.72;5058941;28;4091;-67
2023/08/05 05:55:45;;;;;;;;;;;;;;;21.60;58.64;101032.31;5059443;28;4213;-67
2023/08/05 05:58:13;;;;;;;;;;;;;;;21.61;58.67;101033.78;5042364;28;4135;-67
2023/08/05 06:00:40;;;;;;;;;;;;;;;21.60;58.57;101025.78;5042832;28;4523;-67
2023/08/05 06:03:06;;;;;;;;;;;;;;;21.59;58.68;101036.59;5059841;28;4319;-67
2023/08/05 06:05:33;;;;;;;;;;;;;;;21.61;58.52;101035.94;5059859;28;4214;-67
2023/08/05 06:07:59;;;;;;;;;;;;;;;21.60;58.50;101035.22;5058862;28;4458;-67
2023/08/05 06:10:25;;;;;;;;;;;;;;;21.61;58.64;101028.03;5059209;28;5236;-67
2023/08/05 06:12:52;;;;;;;;;;;;;;;21.60;58.31;101026.56;5059878;28;3948;-67
2023/08/05 06:15:18;;;;;;;;;;;;;;;21.60;58.55;101025.78;5059177;28;4178;-67
2023/08/05 06:17:46;;;;;;;;;;;;;;;21.60;58.49;101020.78;5058602;28;4181;-67
2023/08/05 06:20:12;;;;;;;;;;;;;;;21.60;58.30;101020.78;5059826;28;4164;-67
2023/08/05 06:22:39;;;;;;;;;;;;;;;21.61;58.52;101024.41;5059228;28;4329;-66
2023/08/05 06:25:05;;;;;;;;;;;;;;;21.60;58.33;101015.03;5046334;28;4171;-67
2023/08/05 06:27:31;;;;;;;;;;;;;;;21.60;58.55;101020.03;5059796;28;4294;-67
2023/08/05 06:29:58;;;;;;;;;;;;;;;21.59;58.61;101019.28;5058311;28;4143;-76
2023/08/05 06:32:24;;;;;;;;;;;;;;;21.60;58.64;101020.03;5058712;28;4001;-66
2023/08/05 06:34:51;;;;;;;;;;;;;;;21.59;58.46;101025.06;5057598;28;4143;-66
2023/08/05 06:37:17;;;;;;;;;;;;;;;21.60;58.64;101026.56;5059503;28;4162;-66
2023/08/05 06:39:44;;;;;;;;;;;;;;;21.60;58.61;101020.78;5058025;28;4509;-66
2023/08/05 06:42:10;;;;;;;;;;;;;;;21.58;58.84;101023.59;5059325;28;4130;-66
2023/08/05 06:44:43;;;;;;;;;;;;;;;21.60;58.54;101032.31;5040902;28;4169;-66
2023/08/05 06:47:09;;;;;;;;;;;;;;;21.59;58.66;101032.97;5062016;28;4481;-66
2023/08/05 06:49:36;;;;;;;;;;;;;;;21.59;58.63;101042.34;5063291;28;4448;-65
2023/08/05 06:52:02;;;;;;;;;;;;;;;21.60;58.76;101026.56;5062268;28;4271;-66
2023/08/05 06:54:29;;;;;;;;;;;;;;;21.59;58.64;101042.34;5062462;28;4141;-66
2023/08/05 06:56:55;;;;;;;;;;;;;;;21.58;58.60;101028.59;5062815;28;3948;-66
2023/08/05 06:59:21;;;;;;;;;;;;;;;21.58;58.73;101029.34;5063400;28;4152;-66
2023/08/05 07:01:48;;;;;;;;;;;;;;;21.60;58.67;101014.28;5062326;28;4085;-66
2023/08/05 07:04:15;;;;;;;;;;;;;;;21.61;58.75;101027.28;5062301;28;4044;-66
2023/08/05 07:06:44;;;;;;;;;;;;;;;21.60;58.37;101032.31;5062440;28;4057;-66
2023/08/05 07:09:10;;;;;;;;;;;;;;;21.59;58.55;101022.19;5062594;28;4159;-66
2023/08/05 07:11:36;;;;;;;;;;;;;;;21.61;58.41;101025.16;5063591;28;4261;-66
2023/08/05 07:14:03;;;;;;;;;;;;;;;21.61;58.65;101022.28;5063330;28;3907;-66
2023/08/05 07:16:29;;;;;;;;;;;;;;;21.61;58.73;101016.50;5063462;28;4101;-66
2023/08/05 07:18:56;;;;;;;;;;;;;;;21.59;58.43;101016.41;5062553;28;4344;-66
2023/08/05 07:21:22;;;;;;;;;;;;;;;21.59;58.52;101002.00;5062578;28;4301;-66
2023/08/05 07:23:48;;;;;;;;;;;;;;;21.61;58.70;100999.22;5062738;28;4180;-66
2023/08/05 07:26:15;;;;;;;;;;;;;;;21.60;58.73;101000.63;5062770;28;4081;-66
2023/08/05 07:28:42;;;;;;;;;;;;;;;21.60;58.59;101009.28;5062712;28;4200;-66
2023/08/05 07:31:10;;;;;;;;;;;;;;;21.59;58.41;101004.88;5062617;28;4157;-66
2023/08/05 07:33:36;;;;;;;;;;;;;;;21.59;58.67;100999.13;5062028;28;4384;-66
2023/08/05 07:36:06;;;;;;;;;;;;;;;21.61;58.73;101004.25;5062954;28;4079;-66
2023/08/05 07:38:35;;;;;;;;;;;;;;;21.60;58.30;100997.75;5062928;28;4485;-67
2023/08/05 07:41:01;;;;;;;;;;;;;;;21.60;58.51;101000.63;5061982;28;4000;-66
2023/08/05 07:43:29;;;;;;;;;;;;;;;21.60;58.63;101009.28;5062379;28;4111;-67
2023/08/05 07:45:59;;;;;;;;;;;;;;;21.60;58.52;101003.50;5061113;28;4105;-67
2023/08/05 07:48:27;;;;;;;;;;;;;;;21.61;58.63;101007.84;5061564;28;3900;-66
2023/08/05 07:50:53;;;;;;;;;;;;;;;21.61;58.71;101004.97;5062139;28;4199;-66
2023/08/05 07:53:23;;;;;;;;;;;;;;;21.61;58.37;101007.84;5062656;28;4084;-66
2023/08/05 07:55:50;;;;;;;;;;;;;;;21.62;58.30;100999.94;5060104;28;4186;-66
2023/08/05 07:58:17;;;;;;;;;;;;;;;21.63;58.46;100999.31;5061912;28;3903;-66
2023/08/05 08:00:44;;;;;;;;;;;;;;;21.63;58.57;100995.69;5060532;28;6466;-66
2023/08/05 08:03:10;;;;;;;;;;;;;;;21.62;58.44;100994.94;5059941;28;4023;-66
2023/08/05 08:05:37;;;;;;;;;;;;;;;21.63;58.58;101005.06;5060190;28;4164;-66
2023/08/05 08:08:03;;;;;;;;;;;;;;;21.62;58.57;101000.69;5061974;28;4006;-66
2023/08/05 08:10:29;;;;;;;;;;;;;;;21.62;58.32;100992.03;5062569;28;4153;-66
2023/08/05 08:12:56;;;;;;;;;;;;;;;21.62;58.55;100983.41;5060189;28;4020;-66
2023/08/05 08:15:22;;;;;;;;;;;;;;;21.63;58.63;100996.44;5062909;28;4067;-66
2023/08/05 08:17:49;;;;;;;;;;;;;;;21.62;58.54;100994.94;5061590;28;5030;-66
2023/08/05 08:20:15;;;;;;;;;;;;;;;21.62;58.54;101000.69;5061096;28;4154;-66
2023/08/05 08:22:41;;;;;;;;;;;;;;;21.62;58.41;100992.03;5061049;28;4308;-66
2023/08/05 08:25:08;;;;;;;;;;;;;;;21.63;58.58;100996.44;5061406;28;4176;-66
2023/08/05 08:27:34;;;;;;;;;;;;;;;21.63;58.34;100996.44;5059788;28;4040;-66
2023/08/05 08:30:01;;;;;;;;;;;;;;;21.62;58.71;101000.69;5032317;28;4021;-66
2023/08/05 08:32:27;;;;;;;;;;;;;;;21.62;58.53;101000.69;5061044;28;4137;-66
2023/08/05 08:34:54;;;;;;;;;;;;;;;21.64;58.31;100989.25;5060885;28;4122;-66
2023/08/05 08:37:20;;;;;;;;;;;;;;;21.64;58.56;100992.13;5061281;28;4005;-66
2023/08/05 08:39:46;;;;;;;;;;;;;;;21.63;58.31;100996.44;5060441;28;4054;-66
2023/08/05 08:42:13;;;;;;;;;;;;;;;21.63;58.34;100996.44;5061322;28;3998;-66
2023/08/05 08:44:39;;;;;;;;;;;;;;;21.62;58.43;100997.81;5061664;28;4167;-66
2023/08/05 08:47:06;;;;;;;;;;;;;;;21.63;58.45;100989.94;5061190;28;4394;-66
2023/08/05 08:49:32;;;;;;;;;;;;;;;21.63;58.46;100987.78;5060398;28;4056;-66
2023/08/05 08:51:59;;;;;;;;;;;;;;;21.62;58.44;100992.03;5060045;28;4151;-66
2023/08/05 08:54:26;;;;;;;;;;;;;;;21.62;58.53;100986.28;5060196;28;4338;-66
2023/08/05 08:56:53;;;;;;;;;;;;;;;21.63;58.42;100984.91;5060789;28;4046;-67
2023/08/05 08:59:19;;;;;;;;;;;;;;;21.61;58.56;100978.31;5031888;28;4374;-66
2023/08/05 09:01:45;;;;;;;;;;;;;;;21.62;58.42;100977.63;5060196;28;3925;-66
2023/08/05 09:04:12;;;;;;;;;;;;;;;21.61;58.35;100979.03;5060269;28;4315;-66
2023/08/05 09:06:39;;;;;;;;;;;;;;;21.61;58.47;100976.16;5060076;28;4515;-66
2023/08/05 09:09:05;;;;;;;;;;;;;;;21.62;58.57;100977.63;5029020;28;3998;-66
2023/08/05 09:11:32;;;;;;;;;;;;;;;21.63;58.57;100982.03;5059670;28;4434;-67
2023/08/05 09:13:58;;;;;;;;;;;;;;;21.64;58.54;100982.75;5059618;28;4668;-66
2023/08/05 09:16:26;;;;;;;;;;;;;;;21.65;58.20;100984.25;5060800;28;4518;-66
2023/08/05 09:18:53;;;;;;;;;;;;;;;21.63;58.49;100976.25;5059131;28;4136;-66
2023/08/05 09:21:22;;;;;;;;;;;;;;;21.63;58.46;100984.91;5060201;28;4203;-67
2023/08/05 09:23:49;;;;;;;;;;;;;;;21.62;58.31;100983.41;5059667;28;5421;-67
2023/08/05 09:26:25;;;;;;;;;;;;;;;21.63;58.57;100984.91;5060761;28;4096;-66
2023/08/05 09:28:51;;;;;;;;;;;;;;;21.64;58.43;100985.63;5061015;28;4019;-66
2023/08/05 09:31:17;;;;;;;;;;;;;;;21.64;58.28;100979.88;5060270;28;4073;-66
2023/08/05 09:33:44;;;;;;;;;;;;;;;21.63;58.32;100979.13;5059399;28;4529;-66
2023/08/05 09:36:11;;;;;;;;;;;;;;;21.62;58.34;100971.88;5060233;28;4442;-66
2023/08/05 09:38:39;;;;;;;;;;;;;;;21.64;58.50;100974.09;5058729;28;4833;-66
2023/08/05 09:41:06;;;;;;;;;;;;;;;21.64;58.45;100965.47;5059769;28;3990;-66
2023/08/05 09:43:35;;;;;;;;;;;;;;;21.62;58.61;100960.34;5060364;28;4335;-66
2023/08/05 09:46:04;;;;;;;;;;;;;;;21.63;58.43;100950.31;5058926;28;4124;-66
2023/08/05 09:48:32;;;;;;;;;;;;;;;21.64;58.38;100951.78;5060088;28;4124;-67
2023/08/05 09:50:58;;;;;;;;;;;;;;;21.64;58.36;100951.78;5031953;28;4146;-66
2023/08/05 09:53:28;;;;;;;;;;;;;;;21.64;58.53;100951.06;5058551;28;4045;-66
2023/08/05 09:55:55;;;;;;;;;;;;;;;21.63;58.42;100950.31;5030370;28;4158;-66
2023/08/05 09:58:22;;;;;;;;;;;;;;;21.64;58.52;100940.25;5059492;28;4268;-66
2023/08/05 10:00:50;;;;;;;;;;;;;;;21.64;58.32;100939.53;5059197;28;4124;-66
2023/08/05 10:03:16;;;;;;;;;;;;;;;21.63;58.43;100941.66;5059044;28;4106;-66
2023/08/05 10:05:44;;;;;;;;;;;;;;;21.63;58.38;100938.78;5060220;28;4015;-66
2023/08/05 10:08:11;;;;;;;;;;;;;;;21.64;58.32;100939.53;5042130;28;4297;-66
2023/08/05 10:10:38;;;;;;;;;;;;;;;21.64;58.47;100946.03;5058376;28;5536;-66
2023/08/05 10:13:08;;;;;;;;;;;;;;;21.64;58.41;100934.50;5059370;28;4225;-66
2023/08/05 10:15:35;;;;;;;;;;;;;;;21.65;58.24;100935.25;5059785;28;4537;-66
2023/08/05 10:18:02;;;;;;;;;;;;;;;21.65;58.40;100936.00;5059252;28;3999;-66
2023/08/05 10:20:34;;;;;;;;;;;;;;;21.66;58.30;100939.63;5060475;28;4007;-66
2023/08/05 10:23:10;;;;;;;;;;;;;;;21.64;58.38;100934.50;5062784;28;4096;-66
2023/08/05 10:25:45;;;;;;;;;;;;;;;21.65;58.31;100938.88;5063501;28;4213;-66
2023/08/05 10:28:24;;;;;;;;;;;;;;;21.65;58.53;100938.88;5063414;28;4224;-66
2023/08/05 10:30:51;;;;;;;;;;;;;;;21.66;58.19;100949.00;5064001;28;4108;-66
2023/08/05 10:33:17;;;;;;;;;;;;;;;21.66;58.37;100960.53;5063573;28;4082;-67
2023/08/05 10:35:44;;;;;;;;;;;;;;;21.66;58.42;100949.00;5063047;28;4182;-66
2023/08/05 10:38:10;;;;;;;;;;;;;;;21.66;58.19;100940.34;5062143;28;4102;-67
2023/08/05 10:40:46;;;;;;;;;;;;;;;21.67;58.56;100941.84;5063150;28;4403;-66
2023/08/05 10:43:27;;;;;;;;;;;;;;;21.65;58.12;100941.03;5063876;28;4152;-66
2023/08/05 10:45:54;;;;;;;;;;;;;;;21.66;58.42;100928.09;5062040;28;4170;-66
2023/08/05 10:48:20;;;;;;;;;;;;;;;21.65;58.57;100924.47;5062789;28;4337;-67
2023/08/05 10:50:47;;;;;;;;;;;;;;;21.65;58.52;100915.81;5033862;28;4533;-66
2023/08/05 10:53:14;;;;;;;;;;;;;;;21.65;58.57;100918.72;5063779;28;4493;-66
2023/08/05 10:55:47;;;;;;;;;;;;;;;21.66;58.28;100922.31;5063103;28;4117;-66
2023/08/05 10:58:14;;;;;;;;;;;;;;;21.66;58.13;100920.19;5063244;28;4038;-66
2023/08/05 11:00:42;;;;;;;;;;;;;;;21.66;58.48;100910.78;5061908;28;4942;-66
2023/08/05 11:03:21;;;;;;;;;;;;;;;21.67;58.12;100913.03;5062050;28;4117;-66
2023/08/05 11:05:47;;;;;;;;;;;;;;;21.66;58.45;100905.78;5062882;28;3950;-66
2023/08/05 11:08:17;;;;;;;;;;;;;;;21.66;58.48;100897.13;5062835;28;4049;-67
2023/08/05 11:10:46;;;;;;;;;;;;;;;21.67;58.09;100892.84;5033371;28;4147;-66
2023/08/05 11:13:13;;;;;;;;;;;;;;;21.61;58.54;100886.84;5036070;28;4974;-66
2023/08/05 11:15:40;;;;;;;;;;;;;;;21.60;58.57;100879.59;5035743;28;4167;-66
2023/08/05 11:18:06;;;;;;;;;;;;;;;21.60;58.34;100882.47;5063485;28;5224;-66
2023/08/05 11:20:33;;;;;;;;;;;;;;;21.61;58.30;100877.44;5062904;28;4061;-66
2023/08/05 11:23:00;;;;;;;;;;;;;;;21.61;58.62;100874.56;5032145;28;4153;-66
2023/08/05 11:25:26;;;;;;;;;;;;;;;21.59;58.32;100872.34;5062675;28;4302;-67
2023/08/05 11:27:53;;;;;;;;;;;;;;;21.61;58.49;100880.34;5060836;28;4369;-67
2023/08/05 11:30:19;;;;;;;;;;;;;;;21.61;58.54;100877.44;5062362;28;4279;-66
2023/08/05 11:32:53;;;;;;;;;;;;;;;21.61;58.59;100869.53;5061559;28;5010;-66
2023/08/05 11:35:19;;;;;;;;;;;;;;;21.61;58.63;100869.53;5062058;28;4045;-66
2023/08/05 11:37:46;;;;;;;;;;;;;;;21.61;58.43;100869.53;5061923;28;4530;-66
2023/08/05 11:40:12;;;;;;;;;;;;;;;21.61;58.42;100872.44;5061851;28;4134;-66
2023/08/05 11:42:39;;;;;;;;;;;;;;;21.62;58.39;100867.41;5062161;28;4115;-66
2023/08/05 11:45:10;;;;;;;;;;;;;;;21.62;58.38;100862.38;5061912;28;4125;-66
2023/08/05 11:47:37;;;;;;;;;;;;;;;21.62;58.47;100865.25;5061282;28;4098;-66
2023/08/05 11:50:03;;;;;;;;;;;;;;;21.63;58.60;100860.97;5062739;28;4277;-67
2023/08/05 11:52:30;;;;;;;;;;;;;;;21.63;58.58;100858.09;5062355;28;4282;-67
2023/08/05 11:54:58;;;;;;;;;;;;;;;21.65;58.46;100855.31;5032896;28;4223;-66
2023/08/05 11:57:24;;;;;;;;;;;;;;;21.69;58.45;100861.25;5061587;28;4034;-66
2023/08/05 11:59:56;;;;;;;;;;;;;;;21.69;58.05;100854.72;5060904;28;4227;-66
2023/08/05 12:02:24;;;;;;;;;;;;;;;21.68;58.37;100856.88;5061210;28;4086;-67
2023/08/05 12:04:51;;;;;;;;;;;;;;;21.69;58.35;100852.59;5060760;28;4174;-66
2023/08/05 12:07:18;;;;;;;;;;;;;;;21.70;58.20;100845.41;5061772;28;4103;-67
2023/08/05 12:09:45;;;;;;;;;;;;;;;21.70;58.30;100850.44;5061442;28;4331;-66
2023/08/05 12:12:15;;;;;;;;;;;;;;;21.69;58.24;100849.72;5061217;28;4113;-66
2023/08/05 12:14:42;;;;;;;;;;;;;;;21.69;58.26;100849.72;5060810;28;4134;-66
2023/08/05 12:17:08;;;;;;;;;;;;;;;21.70;58.19;100845.41;5061258;28;4127;-66
2023/08/05 12:19:34;;;;;;;;;;;;;;;21.69;58.10;100843.19;5061984;28;4188;-66
2023/08/05 12:22:01;;;;;;;;;;;;;;;21.69;58.53;100849.72;5062046;28;4921;-67
2023/08/05 12:24:27;;;;;;;;;;;;;;;21.70;58.48;100845.41;5061065;28;4576;-67
2023/08/05 12:26:54;;;;;;;;;;;;;;;21.70;58.44;100845.41;5061143;28;3888;-67
2023/08/05 12:29:20;;;;;;;;;;;;;;;21.70;58.41;100838.91;5061502;28;4007;-66
2023/08/05 12:31:46;;;;;;;;;;;;;;;21.71;58.43;100846.88;5059517;28;4170;-66
2023/08/05 12:34:13;;;;;;;;;;;;;;;21.71;58.44;100846.16;5061697;28;4212;-67
2023/08/05 12:36:39;;;;;;;;;;;;;;;21.69;58.19;100832.44;5060098;28;4085;-66
2023/08/05 12:39:07;;;;;;;;;;;;;;;21.71;58.14;100825.97;5060703;28;4176;-66
2023/08/05 12:41:34;;;;;;;;;;;;;;;21.71;58.38;100823.84;5059564;28;4526;-66
2023/08/05 12:44:01;;;;;;;;;;;;;;;21.70;58.32;100816.59;5061020;28;3999;-66
2023/08/05 12:46:27;;;;;;;;;;;;;;;21.71;58.27;100823.09;5035441;28;4046;-66